EHWO

Woensdrecht Air Base Airport

Bergen Op Zoom, The Netherlands
METAR EHWO 162155Z AUTO 18005KT 120V230 6000 BR OVC003 03/03 Q1012 YLO
Observed Flight Rules
Dec-16 @ 21:55 UTC (8 minutes ago) Instrument Flight Rules
Wind Visibility Clouds Conditions
180° at 5 knots 6,003 meters
  • Overcast at 300' AGL
  • Mist
Temperatures Readings
Current 3°C / 37°F
Dewpoint 3°C / 37°F
Humidity 100%
Altimeter 29.88" Hg
Pressure 1012 hPa
Elevation 17
METAR EHWO 162155Z AUTO 18005KT 120V230 6000 BR OVC003 03/03 Q1012 YLO
Observed Flight Rules
Dec-16 @ 21:55 UTC
(8 minutes ago)
LIFR
Wind Visibility
180° at 5 knots 6,003 meters
Clouds
  • Overcast at 300' AGL
Conditions
  • Mist
Temperature Dewpoint
3°C / 37°F 3°C / 37°F
Humidity Altimeter Pressure
100% 29.88" Hg 1012 hPa